• Join FlightAware (Why Join?)
  • Login
  • US Flag 
01:41PM EDT


 

Airport Tracker/Info


-or-


 

Live Flight TrackerFlight Track Log ✈ UAL4543 ✈ 26-Apr-2013 ✈ KRDU - KEWR

Flight Track Log - Related Links

Times and Time Zones

All times are in EDT time to prevent confusion due to time zone crossing. See the UAL4543 flight status page for this flight to view local times or setup timezone preferences in your user account.

Time Position Orientation Groundspeed Altitude Reporting Facility
EDT Latitude Longitude Course Direction KTS MPH feet Rate Location/Type
04:38PM 35.9031 -78.7692 15° North 186 214 1,600  Level Washington Center
04:39PM 35.9647 -78.7306 27° Northeast 213 245 3,900 2,400 Climbing Washington Center
04:40PM 36.1079 -78.6921 39° Northeast  Level FlightAware Approximate
04:40PM 36.0342 -78.7078 15° North 242 278 6,800  Level Washington Center
04:41PM 36.1868 -78.6604 19° North  Level FlightAware Approximate
04:41PM 36.1078 -78.6875 13° North 257 296 9,200  Level Washington Center
04:42PM 36.2670 -78.6277 15° North  Level FlightAware Approximate
04:42PM 36.1792 -78.6644 15° North 280 322 10,700  Level Washington Center
04:43PM 36.3485 -78.6005 15° North  Level FlightAware Approximate
04:43PM 36.2781 -78.6322 15° North 323 372 13,300  Level Washington Center
04:44PM 36.3581 -78.6097 13° North 330 380 15,800 2,220 Climbing Washington Center
04:45PM 36.4528 -78.5797 14° North 322 371 17,800 1,920 Climbing Washington Center
04:46PM 36.5411 -78.5494 15° North 322 371 19,700 1,920 Climbing Washington Center
04:47PM 36.6336 -78.5167 16° North 322 371 21,600 1,800 Climbing Washington Center
04:48PM 36.7136 -78.4836 18° North 327 376 23,400 1,680 Climbing Washington Center
04:49PM 36.7983 -78.4297 27° Northeast 327 376 25,100 1,260 Climbing Washington Center
04:50PM 36.8836 -78.3625 32° Northeast 339 390 26,000 420 Climbing Washington Center
04:51PM 36.9708 -78.2772 38° Northeast 357 411 26,000 240 Level Washington Center
04:52PM 37.0378 -78.1781 50° Northeast 362 417 26,600 480 Climbing Washington Center
04:53PM 37.0981 -78.0969 47° Northeast 362 417 27,000 180 Climbing Washington Center
04:54PM 37.1892 -78.0217 33° Northeast 362 417 27,000  Level Washington Center
04:55PM 37.2867 -77.9439 32° Northeast 390 449 27,000  Level Washington Center
04:56PM 37.3842 -77.8631 33° Northeast 407 468 27,000  Level Washington Center
04:57PM 37.4794 -77.7850 33° Northeast 412 474 27,000  Level Washington Center
04:58PM 37.5750 -77.7039 34° Northeast 412 474 27,000  Level Washington Center
04:59PM 37.6700 -77.6225 34° Northeast 412 474 27,000  Level Washington Center
05:00PM 37.7653 -77.5436 33° Northeast 407 468 27,000  Level Washington Center
05:01PM 37.8647 -77.4619 33° Northeast 407 468 27,000  Level Washington Center
05:02PM 37.9639 -77.3775 34° Northeast 417 480 27,000  Level Washington Center
05:03PM 38.0631 -77.2956 33° Northeast 422 486 27,000  Level Washington Center
05:04PM 38.1644 -77.2106 33° Northeast 422 486 27,000  Level Washington Center
05:05PM 38.2678 -77.1203 34° Northeast 433 498 27,000  Level Washington Center
05:06PM 38.3689 -77.0375 33° Northeast 433 498 27,000  Level Washington Center
05:07PM 38.4678 -76.9494 35° Northeast 433 498 27,000  Level Washington Center
05:08PM 38.5731 -76.8611 33° Northeast 438 504 27,000  Level Washington Center
05:09PM 38.6742 -76.7722 34° Northeast 443 510 27,000  Level Washington Center
05:10PM 38.7689 -76.6700 40° Northeast 443 510 27,000  Level Washington Center
05:11PM 38.8636 -76.5619 42° Northeast 443 510 27,000 -60 Level Washington Center
05:12PM 38.9581 -76.4567 41° Northeast 448 516 26,900 -780 Descending Washington Center
05:13PM 39.0506 -76.3428 44° Northeast 448 516 25,500 -960 Descending Washington Center
05:14PM 39.1472 -76.2286 42° Northeast 454 522 25,000 -300 Descending Washington Center
05:15PM 39.2603 -76.1089 39° Northeast 462 532 25,000  Level Washington Center
05:16PM 39.3567 -75.9942 43° Northeast 462 532 25,000  Level Washington Center
05:17PM 39.4403 -75.8925 43° Northeast 462 532 25,000  Level Washington Center
05:18PM 39.5364 -75.7800 42° Northeast 462 532 25,000 -120 Level Washington Center
05:19PM 39.6303 -75.6669 43° Northeast 462 532 24,800 -1,320 Descending Washington Center
05:20PM 39.7219 -75.5592 42° Northeast 462 532 22,400 -2,580 Descending Washington Center
05:21PM 39.8114 -75.4511 43° Northeast 449 517 19,700 -2,400 Descending Washington Center
05:22PM 39.8967 -75.3481 43° Northeast 432 497 17,700 -2,340 Descending Washington Center
05:23PM 39.9797 -75.2478 43° Northeast 413 475 15,000 -2,700 Descending Washington Center
05:24PM 40.0586 -75.1497 44° Northeast 394 453 12,400 -2,040 Descending Washington Center
05:25PM 40.1353 -75.0569 43° Northeast 388 447 11,000 -960 Descending Washington Center
05:26PM 40.2014 -74.9722 44° Northeast 359 413 10,500 -960 Descending Washington Center
05:27PM 40.2594 -74.9011 43° Northeast 317 365 9,200 -1,320 Descending Washington Center
05:28PM 40.2547 -74.8250 95° East 245 282 8,000 -660 Descending Washington Center
05:29PM 40.2008 -74.8472 197° South 103 119 7,900 -60 Descending Washington Center
05:30PM 40.1553 -74.9019 223° Southwest 151 174 7,900  Level Washington Center
05:31PM 40.1681 -74.9697 284° West 153 176 7,900  Level Washington Center
05:32PM 40.2242 -74.9475 17° North 106 122 7,900  Level Washington Center
05:33PM 40.2678 -74.8900 45° Northeast 147 169 8,000  Climbing Washington Center
05:34PM 40.2319 -74.8389 133° Southeast 126 145 7,900 -60 Descending Washington Center
05:35PM 40.1844 -74.8908 220° Southwest 103 119 7,900  Level Washington Center
05:36PM 40.1667 -74.9667 253° West 223 257 8,000  Climbing New York TRACON
05:37PM 40.2167 -74.9500 14° North 252 290 8,000  Level New York TRACON
05:37PM 40.2667 -74.8833 45° Northeast 277 319 8,000  Level New York TRACON
05:38PM 40.3167 -74.8167 45° Northeast 274 315 8,000 -420 Level New York TRACON
05:39PM 40.3667 -74.7500 45° Northeast 271 312 7,200 -900 Descending New York TRACON
05:40PM 40.4167 -74.6833 45° Northeast 267 307 6,200 -600 Descending New York TRACON
05:41PM 40.5000 -74.6500 17° North 260 299 6,000 -120 Descending New York TRACON
05:42PM 40.5667 -74.6333 11° North 265 305 6,000 -60 Level New York TRACON
05:43PM 40.6333 -74.6167 11° North 263 303 5,900 -540 Descending New York TRACON
05:44PM 40.7000 -74.6000 11° North 260 299 5,000 -480 Descending New York TRACON
05:45PM 40.7833 -74.5833 North 263 303 5,000  Level New York TRACON
05:47PM 40.8500 -74.5333 30° Northeast 274 315 5,100  Climbing New York TRACON
05:47PM 40.8667 -74.4500 75° East 264 304 5,000 -60 Descending New York TRACON
05:49PM 40.9000 -74.3500 66° East 269 310 5,000 -480 Level New York TRACON
05:50PM 40.9167 -74.2500 78° East 263 303 4,100 -540 Descending New York TRACON
05:50PM 40.9167 -74.1833 90° East 233 268 4,000 -120 Descending New York TRACON